sensor_id;sensor_type;location;lat;lon;timestamp;P1;durP1;ratioP1;P2;durP2;ratioP2
48925;SDS011;39838;59.938;30.642;2023-03-11T00:00:52;8.25;;;4.70;;
48925;SDS011;39838;59.938;30.642;2023-03-11T00:03:19;10.05;;;4.65;;
48925;SDS011;39838;59.938;30.642;2023-03-11T00:05:49;8.40;;;4.93;;
48925;SDS011;39838;59.938;30.642;2023-03-11T00:08:19;10.95;;;4.97;;
48925;SDS011;39838;59.938;30.642;2023-03-11T00:10:50;8.73;;;5.20;;
48925;SDS011;39838;59.938;30.642;2023-03-11T00:13:19;10.13;;;5.15;;
48925;SDS011;39838;59.938;30.642;2023-03-11T00:15:47;11.70;;;5.10;;
48925;SDS011;39838;59.938;30.642;2023-03-11T00:18:16;10.75;;;5.15;;
48925;SDS011;39838;59.938;30.642;2023-03-11T00:20:44;11.75;;;5.70;;
48925;SDS011;39838;59.938;30.642;2023-03-11T00:23:12;13.43;;;6.10;;
48925;SDS011;39838;59.938;30.642;2023-03-11T00:25:41;12.43;;;6.18;;
48925;SDS011;39838;59.938;30.642;2023-03-11T00:28:11;9.95;;;5.82;;
48925;SDS011;39838;59.938;30.642;2023-03-11T00:30:40;13.10;;;6.20;;
48925;SDS011;39838;59.938;30.642;2023-03-11T00:33:09;13.48;;;6.53;;
48925;SDS011;39838;59.938;30.642;2023-03-11T00:35:38;15.82;;;6.97;;
48925;SDS011;39838;59.938;30.642;2023-03-11T00:38:05;16.88;;;7.22;;
48925;SDS011;39838;59.938;30.642;2023-03-11T00:40:34;12.32;;;6.85;;
48925;SDS011;39838;59.938;30.642;2023-03-11T00:43:02;15.95;;;7.53;;
48925;SDS011;39838;59.938;30.642;2023-03-11T00:45:30;16.63;;;8.02;;
48925;SDS011;39838;59.938;30.642;2023-03-11T00:47:58;23.25;;;8.55;;
48925;SDS011;39838;59.938;30.642;2023-03-11T00:50:26;16.83;;;8.18;;
48925;SDS011;39838;59.938;30.642;2023-03-11T00:52:54;16.63;;;8.05;;
48925;SDS011;39838;59.938;30.642;2023-03-11T00:55:22;19.13;;;8.60;;
48925;SDS011;39838;59.938;30.642;2023-03-11T00:57:51;19.90;;;8.55;;
48925;SDS011;39838;59.938;30.642;2023-03-11T01:00:20;14.43;;;7.50;;
48925;SDS011;39838;59.938;30.642;2023-03-11T01:02:49;15.35;;;7.50;;
48925;SDS011;39838;59.938;30.642;2023-03-11T01:05:17;21.55;;;6.60;;
48925;SDS011;39838;59.938;30.642;2023-03-11T01:07:45;13.10;;;6.35;;
48925;SDS011;39838;59.938;30.642;2023-03-11T01:10:13;11.73;;;6.95;;
48925;SDS011;39838;59.938;30.642;2023-03-11T01:12:41;12.10;;;6.68;;
48925;SDS011;39838;59.938;30.642;2023-03-11T01:15:09;14.80;;;6.72;;
48925;SDS011;39838;59.938;30.642;2023-03-11T01:17:43;15.75;;;7.25;;
48925;SDS011;39838;59.938;30.642;2023-03-11T01:20:12;15.15;;;6.88;;
48925;SDS011;39838;59.938;30.642;2023-03-11T01:22:40;14.20;;;6.80;;
48925;SDS011;39838;59.938;30.642;2023-03-11T01:25:08;16.17;;;7.25;;
48925;SDS011;39838;59.938;30.642;2023-03-11T01:27:38;14.63;;;6.70;;
48925;SDS011;39838;59.938;30.642;2023-03-11T01:30:05;13.50;;;6.68;;
48925;SDS011;39838;59.938;30.642;2023-03-11T01:32:33;13.00;;;6.72;;
48925;SDS011;39838;59.938;30.642;2023-03-11T01:35:00;12.10;;;5.88;;
48925;SDS011;39838;59.938;30.642;2023-03-11T01:37:29;13.77;;;6.22;;
48925;SDS011;39838;59.938;30.642;2023-03-11T01:39:57;11.88;;;5.82;;
48925;SDS011;39838;59.938;30.642;2023-03-11T01:42:24;14.70;;;6.63;;
48925;SDS011;39838;59.938;30.642;2023-03-11T01:44:51;12.48;;;5.70;;
48925;SDS011;39838;59.938;30.642;2023-03-11T01:47:33;16.55;;;6.00;;
48925;SDS011;39838;59.938;30.642;2023-03-11T01:50:03;9.63;;;5.10;;
48925;SDS011;39838;59.938;30.642;2023-03-11T01:52:35;10.90;;;5.38;;
48925;SDS011;39838;59.938;30.642;2023-03-11T01:55:04;9.23;;;5.20;;
48925;SDS011;39838;59.938;30.642;2023-03-11T01:57:32;11.30;;;5.50;;
48925;SDS011;39838;59.938;30.642;2023-03-11T01:59:59;12.10;;;5.70;;
48925;SDS011;39838;59.938;30.642;2023-03-11T02:02:31;12.40;;;5.43;;
48925;SDS011;39838;59.938;30.642;2023-03-11T02:05:01;9.85;;;5.50;;
48925;SDS011;39838;59.938;30.642;2023-03-11T02:07:30;11.30;;;5.35;;
48925;SDS011;39838;59.938;30.642;2023-03-11T02:09:58;10.77;;;5.82;;
48925;SDS011;39838;59.938;30.642;2023-03-11T02:12:27;9.68;;;5.75;;
48925;SDS011;39838;59.938;30.642;2023-03-11T02:14:56;10.10;;;6.05;;
48925;SDS011;39838;59.938;30.642;2023-03-11T02:17:24;13.10;;;6.10;;
48925;SDS011;39838;59.938;30.642;2023-03-11T02:19:57;13.65;;;5.70;;
48925;SDS011;39838;59.938;30.642;2023-03-11T02:22:36;13.63;;;6.50;;
48925;SDS011;39838;59.938;30.642;2023-03-11T02:25:08;12.88;;;6.50;;
48925;SDS011;39838;59.938;30.642;2023-03-11T02:27:44;9.73;;;5.93;;
48925;SDS011;39838;59.938;30.642;2023-03-11T02:30:15;10.90;;;6.18;;
48925;SDS011;39838;59.938;30.642;2023-03-11T02:32:43;14.43;;;6.55;;
48925;SDS011;39838;59.938;30.642;2023-03-11T02:35:13;12.95;;;6.07;;
48925;SDS011;39838;59.938;30.642;2023-03-11T02:37:44;14.15;;;6.82;;
48925;SDS011;39838;59.938;30.642;2023-03-11T02:43:14;13.73;;;6.25;;
48925;SDS011;39838;59.938;30.642;2023-03-11T02:45:45;12.00;;;6.20;;
48925;SDS011;39838;59.938;30.642;2023-03-11T02:48:13;9.85;;;5.63;;
48925;SDS011;39838;59.938;30.642;2023-03-11T02:50:42;12.77;;;5.85;;
48925;SDS011;39838;59.938;30.642;2023-03-11T02:53:11;11.68;;;5.78;;
48925;SDS011;39838;59.938;30.642;2023-03-11T02:55:38;10.63;;;6.05;;
48925;SDS011;39838;59.938;30.642;2023-03-11T02:58:05;11.55;;;5.72;;
48925;SDS011;39838;59.938;30.642;2023-03-11T03:00:34;11.40;;;5.40;;
48925;SDS011;39838;59.938;30.642;2023-03-11T03:03:01;9.07;;;5.22;;
48925;SDS011;39838;59.938;30.642;2023-03-11T03:05:28;10.43;;;5.07;;
48925;SDS011;39838;59.938;30.642;2023-03-11T03:07:56;12.48;;;5.82;;
48925;SDS011;39838;59.938;30.642;2023-03-11T03:10:23;8.95;;;5.40;;
48925;SDS011;39838;59.938;30.642;2023-03-11T03:12:50;9.30;;;5.45;;
48925;SDS011;39838;59.938;30.642;2023-03-11T03:15:17;10.63;;;5.32;;
48925;SDS011;39838;59.938;30.642;2023-03-11T03:17:46;12.77;;;5.30;;
48925;SDS011;39838;59.938;30.642;2023-03-11T03:20:15;9.45;;;4.80;;
48925;SDS011;39838;59.938;30.642;2023-03-11T03:22:45;10.32;;;5.10;;
48925;SDS011;39838;59.938;30.642;2023-03-11T03:25:12;10.93;;;5.35;;
48925;SDS011;39838;59.938;30.642;2023-03-11T03:27:39;11.43;;;5.93;;
48925;SDS011;39838;59.938;30.642;2023-03-11T03:30:06;10.43;;;5.35;;
48925;SDS011;39838;59.938;30.642;2023-03-11T03:32:34;11.88;;;5.68;;
48925;SDS011;39838;59.938;30.642;2023-03-11T03:35:04;10.23;;;5.18;;
48925;SDS011;39838;59.938;30.642;2023-03-11T03:37:33;10.32;;;5.55;;
48925;SDS011;39838;59.938;30.642;2023-03-11T03:40:02;10.35;;;5.50;;
48925;SDS011;39838;59.938;30.642;2023-03-11T03:42:32;8.48;;;4.93;;
48925;SDS011;39838;59.938;30.642;2023-03-11T03:44:59;8.23;;;4.70;;
48925;SDS011;39838;59.938;30.642;2023-03-11T03:47:27;9.63;;;4.90;;
48925;SDS011;39838;59.938;30.642;2023-03-11T03:49:54;6.80;;;4.57;;
48925;SDS011;39838;59.938;30.642;2023-03-11T03:52:22;9.35;;;4.78;;
48925;SDS011;39838;59.938;30.642;2023-03-11T03:54:49;9.80;;;5.03;;
48925;SDS011;39838;59.938;30.642;2023-03-11T03:57:17;8.88;;;5.03;;
48925;SDS011;39838;59.938;30.642;2023-03-11T03:59:44;8.75;;;4.90;;
48925;SDS011;39838;59.938;30.642;2023-03-11T04:02:11;7.95;;;4.75;;
48925;SDS011;39838;59.938;30.642;2023-03-11T04:04:38;9.30;;;4.60;;
48925;SDS011;39838;59.938;30.642;2023-03-11T04:07:05;8.77;;;4.80;;
48925;SDS011;39838;59.938;30.642;2023-03-11T04:09:34;8.05;;;4.82;;
48925;SDS011;39838;59.938;30.642;2023-03-11T04:12:04;8.93;;;4.95;;
48925;SDS011;39838;59.938;30.642;2023-03-11T04:14:31;8.50;;;5.00;;
48925;SDS011;39838;59.938;30.642;2023-03-11T04:16:59;7.53;;;4.90;;
48925;SDS011;39838;59.938;30.642;2023-03-11T04:19:26;10.85;;;5.40;;
48925;SDS011;39838;59.938;30.642;2023-03-11T04:21:53;10.05;;;5.60;;
48925;SDS011;39838;59.938;30.642;2023-03-11T04:24:20;11.85;;;6.05;;
48925;SDS011;39838;59.938;30.642;2023-03-11T04:26:48;9.48;;;5.20;;
48925;SDS011;39838;59.938;30.642;2023-03-11T04:29:15;11.00;;;5.38;;
48925;SDS011;39838;59.938;30.642;2023-03-11T04:31:42;10.27;;;5.57;;
48925;SDS011;39838;59.938;30.642;2023-03-11T04:34:10;11.60;;;5.35;;
48925;SDS011;39838;59.938;30.642;2023-03-11T04:36:37;8.90;;;5.13;;
48925;SDS011;39838;59.938;30.642;2023-03-11T04:39:04;11.48;;;6.03;;
48925;SDS011;39838;59.938;30.642;2023-03-11T04:41:32;12.05;;;6.22;;
48925;SDS011;39838;59.938;30.642;2023-03-11T04:44:00;11.98;;;6.35;;
48925;SDS011;39838;59.938;30.642;2023-03-11T04:46:27;9.80;;;5.68;;
48925;SDS011;39838;59.938;30.642;2023-03-11T04:48:54;10.77;;;5.75;;
48925;SDS011;39838;59.938;30.642;2023-03-11T04:51:21;11.18;;;6.13;;
48925;SDS011;39838;59.938;30.642;2023-03-11T04:53:48;11.25;;;6.25;;
48925;SDS011;39838;59.938;30.642;2023-03-11T04:56:16;11.10;;;6.25;;
48925;SDS011;39838;59.938;30.642;2023-03-11T04:58:43;11.02;;;7.03;;
48925;SDS011;39838;59.938;30.642;2023-03-11T05:01:11;13.02;;;7.10;;
48925;SDS011;39838;59.938;30.642;2023-03-11T05:03:38;13.10;;;7.00;;
48925;SDS011;39838;59.938;30.642;2023-03-11T05:06:06;11.52;;;6.75;;
48925;SDS011;39838;59.938;30.642;2023-03-11T05:08:33;11.45;;;6.18;;
48925;SDS011;39838;59.938;30.642;2023-03-11T05:11:00;10.27;;;6.10;;
48925;SDS011;39838;59.938;30.642;2023-03-11T05:13:27;12.60;;;6.60;;
48925;SDS011;39838;59.938;30.642;2023-03-11T05:15:54;10.63;;;5.53;;
48925;SDS011;39838;59.938;30.642;2023-03-11T05:18:23;9.40;;;5.25;;
48925;SDS011;39838;59.938;30.642;2023-03-11T05:20:50;11.70;;;6.03;;
48925;SDS011;39838;59.938;30.642;2023-03-11T05:23:17;7.10;;;5.15;;
48925;SDS011;39838;59.938;30.642;2023-03-11T05:25:44;10.32;;;5.28;;
48925;SDS011;39838;59.938;30.642;2023-03-11T05:28:12;9.38;;;4.97;;
48925;SDS011;39838;59.938;30.642;2023-03-11T05:30:39;8.18;;;4.97;;
48925;SDS011;39838;59.938;30.642;2023-03-11T05:33:06;7.85;;;4.70;;
48925;SDS011;39838;59.938;30.642;2023-03-11T05:35:34;9.93;;;5.38;;
48925;SDS011;39838;59.938;30.642;2023-03-11T05:38:01;16.77;;;4.90;;
48925;SDS011;39838;59.938;30.642;2023-03-11T05:40:29;6.65;;;4.40;;
48925;SDS011;39838;59.938;30.642;2023-03-11T05:42:56;8.45;;;5.30;;
48925;SDS011;39838;59.938;30.642;2023-03-11T05:45:23;10.23;;;5.43;;
48925;SDS011;39838;59.938;30.642;2023-03-11T05:47:50;11.20;;;5.78;;
48925;SDS011;39838;59.938;30.642;2023-03-11T05:50:18;11.50;;;5.35;;
48925;SDS011;39838;59.938;30.642;2023-03-11T05:52:46;8.85;;;5.53;;
48925;SDS011;39838;59.938;30.642;2023-03-11T05:55:13;12.07;;;5.65;;
48925;SDS011;39838;59.938;30.642;2023-03-11T05:57:40;9.52;;;5.68;;
48925;SDS011;39838;59.938;30.642;2023-03-11T06:00:08;10.27;;;6.05;;
48925;SDS011;39838;59.938;30.642;2023-03-11T06:02:37;11.38;;;6.35;;
48925;SDS011;39838;59.938;30.642;2023-03-11T06:05:05;14.32;;;6.60;;
48925;SDS011;39838;59.938;30.642;2023-03-11T06:07:34;11.60;;;7.07;;
48925;SDS011;39838;59.938;30.642;2023-03-11T06:10:03;9.88;;;6.45;;
48925;SDS011;39838;59.938;30.642;2023-03-11T06:12:32;10.35;;;7.35;;
48925;SDS011;39838;59.938;30.642;2023-03-11T06:14:59;14.10;;;7.00;;
48925;SDS011;39838;59.938;30.642;2023-03-11T06:17:28;12.93;;;7.60;;
48925;SDS011;39838;59.938;30.642;2023-03-11T06:19:55;12.45;;;7.03;;
48925;SDS011;39838;59.938;30.642;2023-03-11T06:22:22;10.82;;;6.53;;
48925;SDS011;39838;59.938;30.642;2023-03-11T06:24:49;11.80;;;6.78;;
48925;SDS011;39838;59.938;30.642;2023-03-11T06:27:18;10.95;;;6.00;;
48925;SDS011;39838;59.938;30.642;2023-03-11T06:29:45;13.25;;;6.35;;
48925;SDS011;39838;59.938;30.642;2023-03-11T06:32:12;10.93;;;6.30;;
48925;SDS011;39838;59.938;30.642;2023-03-11T06:34:39;9.85;;;6.25;;
48925;SDS011;39838;59.938;30.642;2023-03-11T06:37:06;10.02;;;6.20;;
48925;SDS011;39838;59.938;30.642;2023-03-11T06:39:34;10.38;;;6.30;;
48925;SDS011;39838;59.938;30.642;2023-03-11T06:42:01;10.20;;;6.25;;
48925;SDS011;39838;59.938;30.642;2023-03-11T06:44:29;9.32;;;5.90;;
48925;SDS011;39838;59.938;30.642;2023-03-11T06:46:59;9.10;;;6.18;;
48925;SDS011;39838;59.938;30.642;2023-03-11T06:49:28;11.80;;;6.13;;
48925;SDS011;39838;59.938;30.642;2023-03-11T06:51:55;11.50;;;6.00;;
48925;SDS011;39838;59.938;30.642;2023-03-11T06:54:22;8.75;;;5.88;;
48925;SDS011;39838;59.938;30.642;2023-03-11T06:56:49;8.25;;;5.72;;
48925;SDS011;39838;59.938;30.642;2023-03-11T06:59:16;10.20;;;5.93;;
48925;SDS011;39838;59.938;30.642;2023-03-11T07:01:45;12.65;;;6.50;;
48925;SDS011;39838;59.938;30.642;2023-03-11T07:04:12;11.23;;;5.40;;
48925;SDS011;39838;59.938;30.642;2023-03-11T07:06:40;13.65;;;5.80;;
48925;SDS011;39838;59.938;30.642;2023-03-11T07:09:07;11.23;;;5.82;;
48925;SDS011;39838;59.938;30.642;2023-03-11T07:11:35;12.27;;;6.47;;
48925;SDS011;39838;59.938;30.642;2023-03-11T07:14:02;8.65;;;6.00;;
48925;SDS011;39838;59.938;30.642;2023-03-11T07:16:29;11.77;;;6.82;;
48925;SDS011;39838;59.938;30.642;2023-03-11T07:18:58;15.43;;;6.30;;
48925;SDS011;39838;59.938;30.642;2023-03-11T07:21:28;9.27;;;5.90;;
48925;SDS011;39838;59.938;30.642;2023-03-11T07:23:57;10.13;;;5.57;;
48925;SDS011;39838;59.938;30.642;2023-03-11T07:26:26;8.35;;;5.22;;
48925;SDS011;39838;59.938;30.642;2023-03-11T07:28:54;9.77;;;5.50;;
48925;SDS011;39838;59.938;30.642;2023-03-11T07:31:22;8.57;;;5.32;;
48925;SDS011;39838;59.938;30.642;2023-03-11T07:33:51;12.07;;;5.90;;
48925;SDS011;39838;59.938;30.642;2023-03-11T07:36:21;9.15;;;5.72;;
48925;SDS011;39838;59.938;30.642;2023-03-11T07:38:53;11.85;;;5.93;;
48925;SDS011;39838;59.938;30.642;2023-03-11T07:41:22;10.57;;;5.20;;
48925;SDS011;39838;59.938;30.642;2023-03-11T07:43:52;7.63;;;4.80;;
48925;SDS011;39838;59.938;30.642;2023-03-11T07:46:20;10.60;;;6.00;;
48925;SDS011;39838;59.938;30.642;2023-03-11T07:48:48;8.82;;;4.90;;
48925;SDS011;39838;59.938;30.642;2023-03-11T07:51:17;10.05;;;5.38;;
48925;SDS011;39838;59.938;30.642;2023-03-11T07:53:47;8.35;;;5.40;;
48925;SDS011;39838;59.938;30.642;2023-03-11T07:56:15;9.23;;;5.00;;
48925;SDS011;39838;59.938;30.642;2023-03-11T07:58:42;8.80;;;5.05;;
48925;SDS011;39838;59.938;30.642;2023-03-11T08:01:10;7.65;;;4.88;;
48925;SDS011;39838;59.938;30.642;2023-03-11T08:03:40;6.85;;;4.97;;
48925;SDS011;39838;59.938;30.642;2023-03-11T08:06:11;7.78;;;4.93;;
48925;SDS011;39838;59.938;30.642;2023-03-11T08:08:39;7.60;;;5.07;;
48925;SDS011;39838;59.938;30.642;2023-03-11T08:11:08;8.13;;;4.82;;
48925;SDS011;39838;59.938;30.642;2023-03-11T08:13:35;6.68;;;4.65;;
48925;SDS011;39838;59.938;30.642;2023-03-11T08:16:03;6.85;;;4.38;;
48925;SDS011;39838;59.938;30.642;2023-03-11T08:18:31;6.25;;;4.50;;
48925;SDS011;39838;59.938;30.642;2023-03-11T08:20:59;7.22;;;4.88;;
48925;SDS011;39838;59.938;30.642;2023-03-11T08:23:30;6.63;;;4.90;;
48925;SDS011;39838;59.938;30.642;2023-03-11T08:25:57;7.53;;;4.80;;
48925;SDS011;39838;59.938;30.642;2023-03-11T08:28:29;6.15;;;4.40;;
48925;SDS011;39838;59.938;30.642;2023-03-11T08:30:56;6.60;;;4.35;;
48925;SDS011;39838;59.938;30.642;2023-03-11T08:33:26;6.57;;;4.30;;
48925;SDS011;39838;59.938;30.642;2023-03-11T08:35:53;6.65;;;4.70;;
48925;SDS011;39838;59.938;30.642;2023-03-11T08:38:21;6.68;;;4.30;;
48925;SDS011;39838;59.938;30.642;2023-03-11T08:40:48;7.15;;;4.40;;
48925;SDS011;39838;59.938;30.642;2023-03-11T08:43:15;8.30;;;4.28;;
48925;SDS011;39838;59.938;30.642;2023-03-11T08:45:43;5.90;;;4.22;;
48925;SDS011;39838;59.938;30.642;2023-03-11T08:48:11;8.25;;;4.28;;
48925;SDS011;39838;59.938;30.642;2023-03-11T08:50:39;6.00;;;3.58;;
48925;SDS011;39838;59.938;30.642;2023-03-11T08:53:06;6.97;;;3.95;;
48925;SDS011;39838;59.938;30.642;2023-03-11T08:55:33;9.50;;;4.13;;
48925;SDS011;39838;59.938;30.642;2023-03-11T08:58:01;5.60;;;3.83;;
48925;SDS011;39838;59.938;30.642;2023-03-11T09:00:28;6.10;;;3.85;;
48925;SDS011;39838;59.938;30.642;2023-03-11T09:02:57;6.78;;;3.78;;
48925;SDS011;39838;59.938;30.642;2023-03-11T09:05:24;6.35;;;3.75;;
48925;SDS011;39838;59.938;30.642;2023-03-11T09:07:51;6.18;;;3.90;;
48925;SDS011;39838;59.938;30.642;2023-03-11T09:10:18;5.93;;;3.80;;
48925;SDS011;39838;59.938;30.642;2023-03-11T09:12:46;5.07;;;3.40;;
48925;SDS011;39838;59.938;30.642;2023-03-11T09:15:13;4.75;;;3.50;;
48925;SDS011;39838;59.938;30.642;2023-03-11T09:17:40;5.93;;;4.13;;
48925;SDS011;39838;59.938;30.642;2023-03-11T09:20:10;5.57;;;3.65;;
48925;SDS011;39838;59.938;30.642;2023-03-11T09:22:38;5.43;;;3.53;;
48925;SDS011;39838;59.938;30.642;2023-03-11T09:25:05;5.20;;;3.38;;
48925;SDS011;39838;59.938;30.642;2023-03-11T09:27:34;5.75;;;4.00;;
48925;SDS011;39838;59.938;30.642;2023-03-11T09:30:01;5.47;;;3.90;;
48925;SDS011;39838;59.938;30.642;2023-03-11T09:32:29;5.13;;;3.70;;
48925;SDS011;39838;59.938;30.642;2023-03-11T09:34:56;5.63;;;3.58;;
48925;SDS011;39838;59.938;30.642;2023-03-11T09:37:25;5.65;;;3.47;;
48925;SDS011;39838;59.938;30.642;2023-03-11T09:39:54;4.78;;;3.40;;
48925;SDS011;39838;59.938;30.642;2023-03-11T09:42:21;7.07;;;3.67;;
48925;SDS011;39838;59.938;30.642;2023-03-11T09:44:56;6.57;;;3.40;;
48925;SDS011;39838;59.938;30.642;2023-03-11T09:47:38;5.65;;;3.40;;
48925;SDS011;39838;59.938;30.642;2023-03-11T09:50:14;5.85;;;3.60;;
48925;SDS011;39838;59.938;30.642;2023-03-11T09:53:07;6.70;;;3.60;;
48925;SDS011;39838;59.938;30.642;2023-03-11T09:55:43;5.93;;;3.60;;
48925;SDS011;39838;59.938;30.642;2023-03-11T09:58:12;6.85;;;3.63;;
48925;SDS011;39838;59.938;30.642;2023-03-11T10:00:44;6.28;;;3.60;;
48925;SDS011;39838;59.938;30.642;2023-03-11T10:03:30;6.05;;;3.67;;
48925;SDS011;39838;59.938;30.642;2023-03-11T10:08:33;5.65;;;3.80;;
48925;SDS011;39838;59.938;30.642;2023-03-11T10:11:11;7.00;;;3.55;;
48925;SDS011;39838;59.938;30.642;2023-03-11T10:14:00;6.32;;;3.80;;
48925;SDS011;39838;59.938;30.642;2023-03-11T10:16:40;5.97;;;3.70;;
48925;SDS011;39838;59.938;30.642;2023-03-11T10:19:21;7.75;;;4.20;;
48925;SDS011;39838;59.938;30.642;2023-03-11T10:22:01;6.82;;;4.05;;
48925;SDS011;39838;59.938;30.642;2023-03-11T10:24:43;6.28;;;4.05;;
48925;SDS011;39838;59.938;30.642;2023-03-11T10:27:19;6.50;;;4.03;;
48925;SDS011;39838;59.938;30.642;2023-03-11T10:29:53;5.80;;;4.10;;
48925;SDS011;39838;59.938;30.642;2023-03-11T10:32:27;6.80;;;4.40;;
48925;SDS011;39838;59.938;30.642;2023-03-11T10:35:04;6.95;;;4.22;;
48925;SDS011;39838;59.938;30.642;2023-03-11T10:37:41;6.65;;;4.25;;
48925;SDS011;39838;59.938;30.642;2023-03-11T10:40:25;6.85;;;4.28;;
48925;SDS011;39838;59.938;30.642;2023-03-11T10:42:56;6.78;;;3.83;;
48925;SDS011;39838;59.938;30.642;2023-03-11T10:45:26;6.38;;;4.38;;
48925;SDS011;39838;59.938;30.642;2023-03-11T10:47:58;6.60;;;4.40;;
48925;SDS011;39838;59.938;30.642;2023-03-11T10:50:25;7.00;;;4.50;;
48925;SDS011;39838;59.938;30.642;2023-03-11T10:53:06;7.20;;;4.80;;
48925;SDS011;39838;59.938;30.642;2023-03-11T10:55:36;6.90;;;4.43;;
48925;SDS011;39838;59.938;30.642;2023-03-11T10:58:13;7.32;;;4.70;;
48925;SDS011;39838;59.938;30.642;2023-03-11T11:00:41;7.32;;;4.32;;
48925;SDS011;39838;59.938;30.642;2023-03-11T11:03:12;7.00;;;4.35;;
48925;SDS011;39838;59.938;30.642;2023-03-11T11:05:48;6.85;;;4.07;;
48925;SDS011;39838;59.938;30.642;2023-03-11T11:08:23;6.90;;;4.03;;
48925;SDS011;39838;59.938;30.642;2023-03-11T11:10:52;6.68;;;4.45;;
48925;SDS011;39838;59.938;30.642;2023-03-11T11:13:21;6.80;;;4.55;;
48925;SDS011;39838;59.938;30.642;2023-03-11T11:15:51;6.30;;;4.38;;
48925;SDS011;39838;59.938;30.642;2023-03-11T11:18:21;6.63;;;4.40;;
48925;SDS011;39838;59.938;30.642;2023-03-11T11:20:55;7.55;;;4.10;;
48925;SDS011;39838;59.938;30.642;2023-03-11T11:23:25;6.47;;;3.88;;
48925;SDS011;39838;59.938;30.642;2023-03-11T11:25:56;5.45;;;3.80;;
48925;SDS011;39838;59.938;30.642;2023-03-11T11:28:25;5.88;;;3.90;;
48925;SDS011;39838;59.938;30.642;2023-03-11T11:30:53;6.30;;;4.30;;
48925;SDS011;39838;59.938;30.642;2023-03-11T11:33:23;5.47;;;3.88;;
48925;SDS011;39838;59.938;30.642;2023-03-11T11:35:53;7.28;;;4.15;;
48925;SDS011;39838;59.938;30.642;2023-03-11T11:38:23;6.22;;;3.70;;
48925;SDS011;39838;59.938;30.642;2023-03-11T11:40:52;7.50;;;3.92;;
48925;SDS011;39838;59.938;30.642;2023-03-11T11:43:24;7.35;;;4.00;;
48925;SDS011;39838;59.938;30.642;2023-03-11T11:45:59;7.68;;;4.25;;
48925;SDS011;39838;59.938;30.642;2023-03-11T11:48:32;8.98;;;4.25;;
48925;SDS011;39838;59.938;30.642;2023-03-11T11:51:10;5.32;;;3.70;;
48925;SDS011;39838;59.938;30.642;2023-03-11T11:53:44;5.63;;;3.80;;
48925;SDS011;39838;59.938;30.642;2023-03-11T11:56:16;8.13;;;3.85;;
48925;SDS011;39838;59.938;30.642;2023-03-11T11:58:45;5.50;;;3.78;;
48925;SDS011;39838;59.938;30.642;2023-03-11T12:01:13;6.25;;;3.72;;
48925;SDS011;39838;59.938;30.642;2023-03-11T12:06:44;6.30;;;3.72;;
48925;SDS011;39838;59.938;30.642;2023-03-11T12:09:21;6.93;;;4.05;;
48925;SDS011;39838;59.938;30.642;2023-03-11T12:11:56;7.53;;;4.10;;
48925;SDS011;39838;59.938;30.642;2023-03-11T12:14:32;6.10;;;4.18;;
48925;SDS011;39838;59.938;30.642;2023-03-11T12:19:34;6.53;;;4.47;;
48925;SDS011;39838;59.938;30.642;2023-03-11T12:22:21;9.13;;;4.40;;
48925;SDS011;39838;59.938;30.642;2023-03-11T12:25:18;7.00;;;4.00;;
48925;SDS011;39838;59.938;30.642;2023-03-11T12:27:55;6.88;;;4.32;;
48925;SDS011;39838;59.938;30.642;2023-03-11T12:30:27;6.63;;;4.05;;
48925;SDS011;39838;59.938;30.642;2023-03-11T12:32:59;9.48;;;4.35;;
48925;SDS011;39838;59.938;30.642;2023-03-11T12:35:29;6.03;;;4.00;;
48925;SDS011;39838;59.938;30.642;2023-03-11T12:38:01;5.57;;;4.18;;
48925;SDS011;39838;59.938;30.642;2023-03-11T12:40:44;7.38;;;4.20;;
48925;SDS011;39838;59.938;30.642;2023-03-11T12:49:36;5.88;;;4.03;;
48925;SDS011;39838;59.938;30.642;2023-03-11T12:57:48;6.30;;;3.88;;
48925;SDS011;39838;59.938;30.642;2023-03-11T13:00:27;5.22;;;3.42;;
48925;SDS011;39838;59.938;30.642;2023-03-11T13:06:14;5.95;;;3.50;;
48925;SDS011;39838;59.938;30.642;2023-03-11T13:08:53;5.55;;;3.70;;
48925;SDS011;39838;59.938;30.642;2023-03-11T13:11:27;6.20;;;4.00;;
48925;SDS011;39838;59.938;30.642;2023-03-11T13:14:09;6.28;;;3.90;;
48925;SDS011;39838;59.938;30.642;2023-03-11T13:16:46;5.38;;;3.60;;
48925;SDS011;39838;59.938;30.642;2023-03-11T13:19:34;6.97;;;3.75;;
48925;SDS011;39838;59.938;30.642;2023-03-11T13:25:34;4.95;;;3.35;;
48925;SDS011;39838;59.938;30.642;2023-03-11T13:28:13;5.97;;;3.40;;
48925;SDS011;39838;59.938;30.642;2023-03-11T13:30:51;6.47;;;4.32;;
48925;SDS011;39838;59.938;30.642;2023-03-11T13:33:34;8.75;;;3.65;;
48925;SDS011;39838;59.938;30.642;2023-03-11T13:36:14;7.60;;;3.90;;
48925;SDS011;39838;59.938;30.642;2023-03-11T13:38:57;8.20;;;3.63;;
48925;SDS011;39838;59.938;30.642;2023-03-11T13:41:41;5.28;;;3.53;;
48925;SDS011;39838;59.938;30.642;2023-03-11T13:44:12;5.60;;;3.60;;
48925;SDS011;39838;59.938;30.642;2023-03-11T13:46:42;5.53;;;3.33;;
48925;SDS011;39838;59.938;30.642;2023-03-11T13:49:18;4.95;;;3.17;;
48925;SDS011;39838;59.938;30.642;2023-03-11T13:51:52;4.78;;;3.60;;
48925;SDS011;39838;59.938;30.642;2023-03-11T13:57:19;4.57;;;3.25;;
48925;SDS011;39838;59.938;30.642;2023-03-11T13:59:54;5.55;;;3.25;;
48925;SDS011;39838;59.938;30.642;2023-03-11T14:02:22;5.53;;;3.30;;
48925;SDS011;39838;59.938;30.642;2023-03-11T14:04:52;5.82;;;3.55;;
48925;SDS011;39838;59.938;30.642;2023-03-11T14:07:23;5.30;;;3.22;;
48925;SDS011;39838;59.938;30.642;2023-03-11T14:12:46;5.38;;;3.58;;
48925;SDS011;39838;59.938;30.642;2023-03-11T14:15:14;10.82;;;4.68;;
48925;SDS011;39838;59.938;30.642;2023-03-11T14:17:45;5.72;;;3.55;;
48925;SDS011;39838;59.938;30.642;2023-03-11T14:20:13;5.70;;;3.70;;
48925;SDS011;39838;59.938;30.642;2023-03-11T14:22:45;8.05;;;4.00;;
48925;SDS011;39838;59.938;30.642;2023-03-11T14:25:16;6.65;;;3.42;;
48925;SDS011;39838;59.938;30.642;2023-03-11T14:27:49;8.23;;;4.20;;
48925;SDS011;39838;59.938;30.642;2023-03-11T14:30:19;7.13;;;3.80;;
48925;SDS011;39838;59.938;30.642;2023-03-11T14:32:56;7.97;;;3.92;;
48925;SDS011;39838;59.938;30.642;2023-03-11T14:35:26;5.53;;;3.90;;
48925;SDS011;39838;59.938;30.642;2023-03-11T14:37:54;6.07;;;3.67;;
48925;SDS011;39838;59.938;30.642;2023-03-11T14:40:23;6.22;;;4.10;;
48925;SDS011;39838;59.938;30.642;2023-03-11T14:42:54;6.25;;;3.80;;
48925;SDS011;39838;59.938;30.642;2023-03-11T14:45:24;7.20;;;4.00;;
48925;SDS011;39838;59.938;30.642;2023-03-11T14:47:55;5.03;;;3.60;;
48925;SDS011;39838;59.938;30.642;2023-03-11T14:50:27;5.90;;;3.88;;
48925;SDS011;39838;59.938;30.642;2023-03-11T14:52:57;6.13;;;3.88;;
48925;SDS011;39838;59.938;30.642;2023-03-11T14:55:28;7.95;;;3.90;;
48925;SDS011;39838;59.938;30.642;2023-03-11T14:58:01;5.78;;;3.78;;
48925;SDS011;39838;59.938;30.642;2023-03-11T15:00:32;6.97;;;4.20;;
48925;SDS011;39838;59.938;30.642;2023-03-11T15:03:03;6.25;;;4.30;;
48925;SDS011;39838;59.938;30.642;2023-03-11T15:05:40;7.43;;;4.75;;
48925;SDS011;39838;59.938;30.642;2023-03-11T15:08:10;6.45;;;4.22;;
48925;SDS011;39838;59.938;30.642;2023-03-11T15:10:38;5.53;;;3.90;;
48925;SDS011;39838;59.938;30.642;2023-03-11T15:13:07;6.78;;;4.05;;
48925;SDS011;39838;59.938;30.642;2023-03-11T15:15:39;5.80;;;3.33;;
48925;SDS011;39838;59.938;30.642;2023-03-11T15:18:20;6.25;;;3.88;;
48925;SDS011;39838;59.938;30.642;2023-03-11T15:20:59;6.00;;;3.95;;